North Battleford Airport
CYQW : now visible

Airfield :











YOU CAN JOIN US ON...

 
LOGIN :

Register | Disclaimer

   EN    FR    IT 

 









Legend :    VFR   Marginal VFR   IFR   Intensive IFR   Very Intensive IFR
Visi :
Ceiling :
>= 8 km
>= 3000ft
5 to 8 km
1000 to 3000 ft
1500m to 5 km
500 to 1000 ft
800 to 1500m
200 to 500 ft
< 800m
< 200 ft
Symbols :   Thunderstorms  Fog  Heavy snow  Heavy precipitations  Wind > 20 kt







- Airport Elevation : 1799 ft
- IATA code : YQW


CYQW - North Battleford

CURRENT METAR :
  • 230018Z AUTO 36012G17KT 9SM -RA OVC055 13/12 A2995 RMK SLP152 DENSITY ALT 1900FT

EXPIRED METARs :
  • 222300Z AUTO 34016G23KT 8SM RA OVC070 15/12 A2988 RMK SLP128 DENSITY ALT 2200FT
  • 222215Z AUTO 31013G20KT 9SM -RA BKN100 OVC120 17/15 A2988 RMK PRESRR SLP125 DENSITY ALT 2400FT
  • 222156Z AUTO 33019KT 9SM -RA FEW040 SCT055 BKN076 OVC120 17/15 A2983 RMK PRESFR SLP108 DENSITY ALT 2500FT

TAF TAF CYQW
Valid from the 23 at 00:00 until the 23 at 12:00 UTC


222347Z 2300/2312 35012G22KT P6SM BKN060 OVC140
TEMPO 2300/2304 P6SM -SHRA
FM230400 34008KT P6SM SCT040 BKN080
FM230800 VRB03KT P6SM FEW080
BECMG 2308/2310 1/2SM FG VV002 RMK FCST BASED ON AUTO OBS. NXT FCST BY 230600Z
No reported NOTAMs for that airfield.



MET'MAP, your aeronautical weather chart ! - Copyright ORBIFLY December 2007 - Disclaimer

ORBIFLY MET'MAP TEAM :

Programming & Development : Alexandra Zaïnal
Concept & Development : Baudouin d'Aumeries
Co-Development & Prog : Marc-Olivier Méhu
Technical & hardware support : Manuel Goepfert

Contact : metmap@orbifly.com




SOURCES & CREDITS :

   NOAA       Earth
Advisory